| time (UTC) | temp F | wind direction | speed MPH | gust MPH | rain 1hr in | rain 24hr in | rain mn in | humidity % | barometer mb |
| 20260906002003 | 59 | 232 | 1.0 | 2.0 | 0.00 | 0.00 | 0.00 | 97 | |
| 20260906001003 | 59 | 223 | 0.0 | 2.0 | 0.00 | 0.00 | 0.00 | 96 | |
| 20260906000003 | 59 | 244 | 0.0 | 2.0 | 0.00 | 0.00 | 0.00 | 96 | |
| 20260905234003 | 59 | 228 | 1.0 | 2.0 | 0.00 | 0.00 | 0.00 | 96 | |
| 20260905233003 | 59 | 233 | 1.0 | 2.0 | 0.00 | 0.00 | 0.00 | 96 | |
| 20260905232217 | 59 | 236 | 1.0 | 2.0 | 0.00 | 0.00 | 0.00 | 96 | |
| 20260905231003 | 59 | 231 | 1.0 | 2.0 | 0.00 | 0.00 | 0.00 | 96 | |
| 20260905230432 | 59 | 236 | 1.0 | 2.0 | 0.00 | 0.00 | 0.00 | 96 | |
| 20260905225003 | 58 | 221 | 0.0 | 2.0 | 0.00 | 0.00 | 0.00 | 96 | |
| 20260905224432 | 58 | 252 | 0.0 | 1.0 | 0.00 | 0.00 | 0.00 | 96 | |
| 20260905223003 | 58 | 230 | 1.0 | 2.0 | 0.00 | 0.00 | 0.00 | 96 | |
| 20260905222034 | 58 | 340 | 0.0 | 2.0 | 0.00 | 0.00 | 0.00 | 96 | |
| 20260905221217 | 58 | 227 | 0.0 | 2.0 | 0.00 | 0.00 | 0.00 | 96 | |
| 20260905220217 | 59 | 232 | 1.0 | 2.0 | 0.00 | 0.00 | 0.00 | 96 | |
| 20260905215003 | 59 | 0 | 0.0 | 0.0 | 0.00 | 0.00 | 0.00 | 96 | |
| 20260905214003 | 59 | 133 | 0.0 | 2.0 | 0.00 | 0.00 | 0.00 | 95 | |
| 20260905213003 | 59 | 16 | 0.0 | 1.0 | 0.00 | 0.00 | 0.00 | 95 | |
| 20260905212216 | 59 | 72 | 0.0 | 1.0 | 0.00 | 0.00 | 0.00 | 95 | |
| 20260905211003 | 59 | 232 | 0.0 | 1.0 | 0.00 | 0.00 | 0.00 | 95 | |
| 20260905210003 | 60 | 223 | 0.0 | 2.0 | 0.00 | 0.00 | 0.00 | 95 | |
| 20260905204003 | 60 | 0 | 0.0 | 0.0 | 0.00 | 0.00 | 0.00 | 95 | |
| 20260905203003 | 60 | 0 | 0.0 | 0.0 | 0.00 | 0.00 | 0.00 | 94 | |
| 20260905201003 | 60 | 0 | 0.0 | 0.0 | 0.00 | 0.00 | 0.00 | 93 | |
| 20260905200004 | 61 | 224 | 0.0 | 2.0 | 0.00 | 0.00 | 0.00 | 93 | |
| 20260905195218 | 61 | 209 | 0.0 | 2.0 | 0.00 | 0.00 | 0.00 | 93 | |
| 20260905194003 | 61 | 137 | 0.0 | 1.0 | 0.00 | 0.00 | 0.00 | 93 | |
| 20260905193003 | 61 | 212 | 0.0 | 2.0 | 0.00 | 0.00 | 0.00 | 92 | |
| 20260905192433 | 62 | 212 | 0.0 | 2.0 | 0.00 | 0.00 | 0.00 | 91 | |
| 20260905191003 | 62 | 265 | 0.0 | 1.0 | 0.00 | 0.00 | 0.00 | 91 | |
| 20260905185003 | 63 | 237 | 0.0 | 2.0 | 0.00 | 0.00 | 0.00 | 90 | |
| 20260905184218 | 63 | 0 | 0.0 | 0.0 | 0.00 | 0.00 | 0.00 | 90 | |
| 20260905182003 | 63 | 219 | 0.0 | 1.0 | 0.00 | 0.00 | 0.00 | 89 | |
| 20260905181003 | 63 | 174 | 0.0 | 2.0 | 0.00 | 0.00 | 0.00 | 89 | |
| 20260905180003 | 63 | 177 | 0.0 | 2.0 | 0.00 | 0.00 | 0.00 | 88 | |
| 20260905175432 | 64 | 0 | 0.0 | 0.0 | 0.00 | 0.00 | 0.00 | 87 | |
| 20260905173003 | 66 | 216 | 1.0 | 2.0 | 0.00 | 0.00 | 0.00 | 82 | |
| 20260905172003 | 67 | 251 | 1.0 | 2.0 | 0.00 | 0.00 | 0.00 | 82 | |
| 20260905171003 | 67 | 200 | 0.0 | 2.0 | 0.00 | 0.00 | 0.00 | 81 | |
| 20260905164003 | 69 | 226 | 2.0 | 3.0 | 0.00 | 0.00 | 0.00 | 79 | |
| 20260905163003 | 69 | 227 | 2.0 | 4.0 | 0.00 | 0.00 | 0.00 | 77 | |
| 20260905162003 | 69 | 242 | 2.0 | 4.0 | 0.00 | 0.00 | 0.00 | 76 | |
| 20260905161003 | 70 | 232 | 2.0 | 4.0 | 0.00 | 0.00 | 0.00 | 74 | |
| 20260905160003 | 71 | 233 | 2.0 | 6.0 | 0.00 | 0.00 | 0.00 | 73 | |
| 20260905155432 | 71 | 236 | 1.0 | 6.0 | 0.00 | 0.00 | 0.00 | 72 | |
| 20260905154003 | 71 | 245 | 3.0 | 6.0 | 0.00 | 0.00 | 0.00 | 72 | |
| 20260905152003 | 71 | 206 | 3.0 | 8.0 | 0.00 | 0.00 | 0.00 | 71 | |
| 20260905151034 | 72 | 234 | 3.0 | 7.0 | 0.00 | 0.00 | 0.00 | 70 | |
| 20260905150034 | 73 | 231 | 3.0 | 7.0 | 0.00 | 0.00 | 0.00 | 69 | |
| 20260905145218 | 71 | 233 | 3.0 | 8.0 | 0.00 | 0.00 | 0.00 | 71 | |
| 20260905144034 | 71 | 225 | 3.0 | 7.0 | 0.00 | 0.00 | 0.00 | 74 | |
| 20260905143218 | 73 | 234 | 2.0 | 6.0 | 0.00 | 0.00 | 0.00 | 68 | |
| 20260905142003 | 72 | 198 | 3.0 | 8.0 | 0.00 | 0.00 | 0.00 | 68 | |
| 20260905141218 | 73 | 192 | 3.0 | 7.0 | 0.00 | 0.00 | 0.00 | 67 | |
| 20260905135003 | 68 | 230 | 4.0 | 8.0 | 0.00 | 0.00 | 0.00 | 77 | |
| 20260905134003 | 69 | 230 | 3.0 | 7.0 | 0.00 | 0.00 | 0.00 | 76 | |
| 20260905133218 | 69 | 239 | 4.0 | 8.0 | 0.00 | 0.00 | 0.00 | 76 | |
| 20260905132217 | 69 | 248 | 3.0 | 9.0 | 0.00 | 0.00 | 0.00 | 74 | |
| 20260905131003 | 70 | 233 | 4.0 | 8.0 | 0.00 | 0.00 | 0.00 | 72 | |
| 20260905130003 | 69 | 225 | 3.0 | 7.0 | 0.00 | 0.00 | 0.00 | 76 | |
| 20260905124217 | 66 | 235 | 4.0 | 7.0 | 0.00 | 0.00 | 0.00 | 80 | |
| 20260905123003 | 66 | 234 | 4.0 | 8.0 | 0.00 | 0.00 | 0.00 | 80 | |
| 20260905122432 | 66 | 233 | 3.0 | 7.0 | 0.00 | 0.00 | 0.00 | 79 | |
| 20260905121217 | 66 | 240 | 2.0 | 5.0 | 0.00 | 0.00 | 0.00 | 77 | |
| 20260905120003 | 67 | 233 | 2.0 | 4.0 | 0.00 | 0.00 | 0.00 | 76 | |
| 20260905115003 | 68 | 226 | 2.0 | 4.0 | 0.00 | 0.00 | 0.00 | 75 | |
| 20260905114432 | 68 | 229 | 2.0 | 5.0 | 0.00 | 0.00 | 0.00 | 71 | |
| 20260905113003 | 71 | 232 | 2.0 | 6.0 | 0.00 | 0.00 | 0.00 | 62 | |
| 20260905112003 | 72 | 240 | 2.0 | 5.0 | 0.00 | 0.00 | 0.00 | 60 | |
| 20260905110003 | 74 | 244 | 1.0 | 2.0 | 0.00 | 0.00 | 0.00 | 58 | |
| 20260905105432 | 72 | 226 | 1.0 | 3.0 | 0.00 | 0.00 | 0.00 | 60 | |
| 20260905104216 | 71 | 227 | 2.0 | 4.0 | 0.00 | 0.00 | 0.00 | 60 | |
| 20260905103003 | 71 | 242 | 1.0 | 3.0 | 0.00 | 0.00 | 0.00 | 59 | |
| 20260905102432 | 71 | 240 | 1.0 | 3.0 | 0.00 | 0.00 | 0.00 | 60 | |
| 20260905100003 | 72 | 317 | 0.0 | 1.0 | 0.00 | 0.00 | 0.00 | 58 | |
| 20260905094003 | 73 | 290 | 1.0 | 2.0 | 0.00 | 0.00 | 0.00 | 61 | |
| 20260905092003 | 69 | 205 | 1.0 | 3.0 | 0.00 | 0.00 | 0.00 | 69 | |
| 20260905091034 | 68 | 344 | 1.0 | 3.0 | 0.00 | 0.00 | 0.00 | 73 | |
| 20260905090003 | 66 | 352 | 1.0 | 5.0 | 0.00 | 0.00 | 0.00 | 74 | |
| 20260905085034 | 65 | 350 | 2.0 | 3.0 | 0.00 | 0.00 | 0.00 | 77 | |
| 20260905084218 | 65 | 6 | 3.0 | 4.0 | 0.00 | 0.00 | 0.00 | 74 | |
| 20260905082003 | 68 | 351 | 2.0 | 4.0 | 0.00 | 0.00 | 0.00 | 64 | |
| 20260905081003 | 68 | 339 | 3.0 | 6.0 | 0.00 | 0.00 | 0.00 | 62 | |
| 20260905075003 | 69 | 1 | 3.0 | 7.0 | 0.00 | 0.00 | 0.00 | 61 | |
| 20260905074433 | 70 | 346 | 3.0 | 5.0 | 0.00 | 0.00 | 0.00 | 62 | |
| 20260905072432 | 72 | 3 | 4.0 | 9.0 | 0.00 | 0.00 | 0.00 | 61 | |
| 20260905071003 | 73 | 358 | 3.0 | 6.0 | 0.00 | 0.00 | 0.00 | 63 | |
| 20260905070003 | 72 | 2 | 3.0 | 6.0 | 0.00 | 0.00 | 0.00 | 68 | |
| 20260905064217 | 70 | 23 | 2.0 | 5.0 | 0.00 | 0.00 | 0.00 | 70 | |
| 20260905063003 | 69 | 4 | 1.0 | 3.0 | 0.00 | 0.00 | 0.00 | 75 | |
| 20260905062217 | 70 | 349 | 0.0 | 2.0 | 0.00 | 0.00 | 0.00 | 71 | |
| 20260905061217 | 69 | 354 | 0.0 | 1.0 | 0.00 | 0.00 | 0.00 | 75 | |
| 20260905060003 | 69 | 15 | 0.0 | 1.0 | 0.00 | 0.00 | 0.00 | 76 | |
| 20260905055035 | 68 | 228 | 0.0 | 2.0 | 0.00 | 0.00 | 0.00 | 80 | |
| 20260905054432 | 67 | 238 | 0.0 | 2.0 | 0.00 | 0.00 | 0.00 | 79 | |
| 20260905053003 | 66 | 232 | 1.0 | 3.0 | 0.00 | 0.00 | 0.00 | 79 | |
| 20260905052216 | 65 | 226 | 1.0 | 2.0 | 0.00 | 0.00 | 0.00 | 80 | |
| 20260905051034 | 65 | 237 | 1.0 | 2.0 | 0.00 | 0.00 | 0.00 | 81 | |
| 20260905045034 | 63 | 22 | 0.0 | 2.0 | 0.00 | 0.00 | 0.00 | 86 | |
| 20260905044433 | 62 | 22 | 0.0 | 2.0 | 0.00 | 0.00 | 0.00 | 86 | |
| 20260905043003 | 63 | 0 | 0.0 | 0.0 | 0.00 | 0.00 | 0.00 | 83 | |
| 20260905042034 | 64 | 0 | 0.0 | 0.0 | 0.00 | 0.00 | 0.00 | 81 | |
| 20260905041003 | 65 | 22 | 0.0 | 2.0 | 0.00 | 0.00 | 0.00 | 78 | |
| 20260905040433 | 66 | 47 | 1.0 | 2.0 | 0.00 | 0.00 | 0.00 | 77 | |
| 20260905035003 | 63 | 59 | 0.0 | 1.0 | 0.00 | 0.00 | 0.00 | 87 | |
| 20260905034003 | 63 | 19 | 0.0 | 1.0 | 0.00 | 0.00 | 0.00 | 89 | |
| 20260905032003 | 64 | 0 | 0.0 | 0.0 | 0.00 | 0.00 | 0.00 | 86 | |
| 20260905031003 | 64 | 196 | 0.0 | 1.0 | 0.00 | 0.00 | 0.00 | 85 | |
| 20260905030218 | 64 | 217 | 0.0 | 2.0 | 0.00 | 0.00 | 0.00 | 85 | |
| 20260905024003 | 64 | 234 | 1.0 | 2.0 | 0.00 | 0.00 | 0.00 | 83 | |
| 20260905023003 | 66 | 235 | 1.0 | 2.0 | 0.00 | 0.00 | 0.00 | 78 | |
| 20260905022433 | 65 | 220 | 1.0 | 2.0 | 0.00 | 0.00 | 0.00 | 79 | |
| 20260905021003 | 65 | 211 | 0.0 | 1.0 | 0.00 | 0.00 | 0.00 | 80 | |
| 20260905020432 | 65 | 154 | 0.0 | 1.0 | 0.00 | 0.00 | 0.00 | 80 | |
| 20260905015432 | 64 | 195 | 0.0 | 1.0 | 0.00 | 0.00 | 0.00 | 82 | |
| 20260905014034 | 64 | 206 | 0.0 | 1.0 | 0.00 | 0.00 | 0.00 | 83 | |
| 20260905013003 | 64 | 213 | 0.0 | 2.0 | 0.00 | 0.00 | 0.00 | 82 | |
| 20260905012003 | 65 | 228 | 1.0 | 3.0 | 0.00 | 0.00 | 0.00 | 80 | |
| 20260905011003 | 66 | 218 | 1.0 | 3.0 | 0.00 | 0.00 | 0.00 | 79 | |
| 20260905010003 | 66 | 217 | 1.0 | 3.0 | 0.00 | 0.00 | 0.00 | 79 | |
| 20260905005003 | 65 | 233 | 1.0 | 2.0 | 0.00 | 0.00 | 0.00 | 80 | |
| 20260905004003 | 64 | 199 | 0.0 | 2.0 | 0.00 | 0.00 | 0.00 | 81 | |
| 20260905003217 | 64 | 192 | 0.0 | 2.0 | 0.00 | 0.00 | 0.00 | 82 |